Time;durP1;ratioP1;P1;durP2;ratioP2;P2;SDS_P1;SDS_P2;PMS_P1;PMS_P2;Temp;Humidity;BMP_temperature;BMP_pressure;BME280_temperature;BME280_humidity;BME280_pressure;Samples;Min_cycle;Max_cycle;Signal;HPM_P1;HPM_P2
2021/12/15 00:00:17;;;;;;;113.93;38.80;;;4.10;99.90;;;;;;4964065;28;20034;-84
2021/12/15 00:02:44;;;;;;;111.30;37.78;;;4.10;99.90;;;;;;4964543;28;20088;-84
2021/12/15 00:05:13;;;;;;;99.93;38.33;;;4.10;99.90;;;;;;4964096;28;20034;-84
2021/12/15 00:07:39;;;;;;;132.82;42.33;;;4.10;99.90;;;;;;4980473;28;20030;-84
2021/12/15 00:10:06;;;;;;;110.45;36.65;;;4.10;99.90;;;;;;4980655;28;20386;-84
2021/12/15 00:12:35;;;;;;;135.98;39.10;;;4.10;99.90;;;;;;4964439;28;20034;-84
2021/12/15 00:15:01;;;;;;;93.40;34.75;;;4.10;99.90;;;;;;4963856;28;20042;-84
2021/12/15 00:17:27;;;;;;;105.63;37.40;;;4.10;99.90;;;;;;4964451;28;20470;-84
2021/12/15 00:19:52;;;;;;;109.90;38.38;;;4.10;99.90;;;;;;4964140;28;20030;-84
2021/12/15 00:22:19;;;;;;;102.97;37.72;;;4.10;99.90;;;;;;4964207;28;20023;-84
2021/12/15 00:24:44;;;;;;;106.10;38.22;;;4.10;99.90;;;;;;4996255;28;20486;-84
2021/12/15 00:27:10;;;;;;;99.10;36.95;;;4.00;99.90;;;;;;4980441;28;20092;-84
2021/12/15 00:29:36;;;;;;;98.47;36.17;;;3.90;99.90;;;;;;4980171;28;20035;-84
2021/12/15 00:32:04;;;;;;;99.78;35.85;;;3.90;99.90;;;;;;4963881;28;20042;-84
2021/12/15 00:34:33;;;;;;;105.07;38.03;;;3.80;99.90;;;;;;4996103;28;20035;-84
2021/12/15 00:36:59;;;;;;;164.43;44.67;;;3.70;99.90;;;;;;4963820;28;20034;-84
2021/12/15 00:39:27;;;;;;;111.68;39.42;;;3.70;99.90;;;;;;4963805;28;20124;-84
2021/12/15 00:41:54;;;;;;;108.65;38.78;;;3.70;99.90;;;;;;4980301;28;20026;-84
2021/12/15 00:44:20;;;;;;;103.93;37.72;;;3.70;99.90;;;;;;4963725;28;20482;-84
2021/12/15 00:47:02;;;;;;;105.40;38.53;;;3.70;99.90;;;;;;4963851;28;20038;-84
2021/12/15 00:49:28;;;;;;;109.30;38.65;;;3.70;99.90;;;;;;4963646;28;20037;-84
2021/12/15 00:51:55;;;;;;;159.32;45.90;;;3.80;99.90;;;;;;4996171;28;20034;-84
2021/12/15 00:54:22;;;;;;;107.10;39.70;;;3.80;99.90;;;;;;4963753;28;20038;-84
2021/12/15 00:56:50;;;;;;;137.40;44.13;;;3.90;99.90;;;;;;4963687;28;20077;-84
2021/12/15 00:59:16;;;;;;;119.30;43.40;;;3.90;99.90;;;;;;4963737;28;20030;-84
2021/12/15 01:01:44;;;;;;;147.20;48.70;;;4.00;99.90;;;;;;4963559;28;20033;-85
2021/12/15 01:04:14;;;;;;;104.10;43.65;;;3.90;99.90;;;;;;4963733;28;20030;-84
2021/12/15 01:06:42;;;;;;;131.98;47.63;;;3.90;99.90;;;;;;4963568;28;20097;-84
2021/12/15 01:09:13;;;;;;;126.18;44.53;;;3.90;99.90;;;;;;4995532;28;20042;-84
2021/12/15 01:19:54;;;;;;;123.57;44.83;;;3.90;99.90;;;;;;4979765;28;20037;-84
2021/12/15 01:22:42;;;;;;;128.30;44.00;;;3.80;99.90;;;;;;4963456;28;20060;-84
2021/12/15 01:25:33;;;;;;;122.45;44.45;;;3.80;99.90;;;;;;4979214;28;20030;-85
2021/12/15 01:27:59;;;;;;;130.40;43.45;;;3.90;99.90;;;;;;4963470;28;20058;-85
2021/12/15 01:30:30;;;;;;;126.47;43.05;;;3.90;99.90;;;;;;4979660;28;20486;-85
2021/12/15 01:32:58;;;;;;;129.65;47.25;;;3.90;99.90;;;;;;4979679;28;20394;-85
2021/12/15 01:35:24;;;;;;;130.75;43.38;;;3.90;99.90;;;;;;4963024;28;20437;-85
2021/12/15 01:37:53;;;;;;;117.05;41.78;;;3.90;99.90;;;;;;4979639;28;20486;-85
2021/12/15 01:40:33;;;;;;;134.95;49.00;;;3.80;99.90;;;;;;4995528;28;20022;-85
2021/12/15 01:43:02;;;;;;;112.55;43.75;;;3.80;99.90;;;;;;4995312;28;20125;-85
2021/12/15 01:48:14;;;;;;;139.80;44.38;;;3.70;99.90;;;;;;4979357;28;20446;-85
2021/12/15 01:50:42;;;;;;;113.70;44.53;;;3.60;99.90;;;;;;4963083;28;20041;-86
2021/12/15 01:53:09;;;;;;;166.85;49.55;;;3.50;99.90;;;;;;4979241;28;20053;-85
2021/12/15 01:55:34;;;;;;;148.85;48.08;;;3.50;99.90;;;;;;4978970;28;20037;-85
2021/12/15 01:58:00;;;;;;;148.48;48.88;;;3.60;99.90;;;;;;4962863;28;20030;-85
2021/12/15 02:00:42;;;;;;;157.43;51.92;;;3.60;99.90;;;;;;4962859;28;20041;-85
2021/12/15 02:03:08;;;;;;;182.18;55.25;;;3.60;99.90;;;;;;4962663;28;20038;-85
2021/12/15 02:05:34;;;;;;;146.77;49.20;;;3.60;99.90;;;;;;4962722;28;20565;-84
2021/12/15 02:08:01;;;;;;;116.80;42.97;;;3.70;99.90;;;;;;4962714;28;20030;-86
2021/12/15 02:10:33;;;;;;;136.07;46.58;;;3.60;99.90;;;;;;4962749;28;20030;-86
2021/12/15 02:13:02;;;;;;;145.95;47.97;;;3.60;99.90;;;;;;4978841;28;20026;-85
2021/12/15 02:15:32;;;;;;;153.10;46.50;;;3.60;99.90;;;;;;4978692;28;20042;-85
2021/12/15 02:18:00;;;;;;;139.73;44.60;;;3.70;99.90;;;;;;4994821;28;20397;-85
2021/12/15 02:20:32;;;;;;;209.98;53.55;;;3.60;99.90;;;;;;4962811;28;20442;-85
2021/12/15 02:22:58;;;;;;;126.38;45.53;;;3.60;99.90;;;;;;4978487;28;20034;-85
2021/12/15 02:25:33;;;;;;;133.32;44.88;;;3.60;99.90;;;;;;4962484;28;20022;-85
2021/12/15 02:28:01;;;;;;;171.75;48.85;;;3.60;99.90;;;;;;4962173;28;20118;-85
2021/12/15 02:38:40;;;;;;;111.15;41.38;;;3.60;99.90;;;;;;4978232;28;20037;-85
2021/12/15 02:41:19;;;;;;;125.75;41.33;;;3.60;99.90;;;;;;4962141;28;20022;-85
2021/12/15 02:43:46;;;;;;;170.55;46.67;;;3.60;99.90;;;;;;4962049;28;20034;-85
2021/12/15 02:46:11;;;;;;;168.27;43.38;;;3.60;99.90;;;;;;4962159;28;20062;-85
2021/12/15 02:48:37;;;;;;;107.43;36.97;;;3.60;99.90;;;;;;4962085;28;20057;-85
2021/12/15 02:51:03;;;;;;;99.78;36.05;;;3.60;99.90;;;;;;4961949;28;20391;-85
2021/12/15 02:53:29;;;;;;;162.20;43.38;;;3.60;99.90;;;;;;4961794;28;20069;-85
2021/12/15 02:55:55;;;;;;;123.70;39.30;;;3.60;99.90;;;;;;4961559;28;20034;-85
2021/12/15 02:58:21;;;;;;;104.90;38.20;;;3.60;99.90;;;;;;4961437;28;20493;-85
2021/12/15 03:01:04;;;;;;;89.38;34.15;;;3.60;99.90;;;;;;4961623;28;20215;-85
2021/12/15 03:06:15;;;;;;;115.93;37.13;;;3.60;99.90;;;;;;4977608;28;20049;-85
2021/12/15 03:09:01;;;;;;;102.03;35.92;;;3.60;99.90;;;;;;4961623;28;20034;-85
2021/12/15 03:15:20;;;;;;;85.60;31.20;;;3.60;99.90;;;;;;4977640;28;20125;-85
2021/12/15 03:17:21;;;;;;;98.82;31.40;;;3.70;99.90;;;;;;4977519;28;20031;-86
2021/12/15 03:19:47;;;;;;;93.75;29.30;;;3.70;99.90;;;;;;4961608;28;20394;-86
2021/12/15 03:22:15;;;;;;;95.10;29.00;;;3.70;99.90;;;;;;4961356;28;20041;-85
2021/12/15 03:24:41;;;;;;;72.20;23.52;;;3.70;99.90;;;;;;4961525;28;20045;-85
2021/12/15 03:27:13;;;;;;;78.60;25.23;;;3.70;99.90;;;;;;4961536;28;20038;-85
2021/12/15 03:35:22;;;;;;;69.47;24.00;;;3.60;99.90;;;;;;4959063;28;20606;-85
2021/12/15 03:37:57;;;;;;;77.53;22.88;;;3.60;99.90;;;;;;4961091;28;20046;-85
2021/12/15 03:40:33;;;;;;;73.13;24.30;;;3.60;99.90;;;;;;4961326;28;20035;-85
2021/12/15 03:43:02;;;;;;;77.93;23.58;;;3.60;99.90;;;;;;4977495;28;20482;-85
2021/12/15 03:45:35;;;;;;;93.00;26.50;;;3.60;99.90;;;;;;4977260;28;20546;-85
2021/12/15 03:48:07;;;;;;;91.97;28.67;;;3.60;99.90;;;;;;4977395;28;20054;-85
2021/12/15 03:50:32;;;;;;;88.85;27.13;;;3.60;99.90;;;;;;4961219;28;20027;-85
2021/12/15 03:52:59;;;;;;;91.47;28.45;;;3.60;99.90;;;;;;4961112;28;20033;-85
2021/12/15 03:55:30;;;;;;;116.28;32.00;;;3.60;99.90;;;;;;4960901;28;20034;-86
2021/12/15 03:57:58;;;;;;;91.55;31.13;;;3.60;99.90;;;;;;4960881;28;20030;-85
2021/12/15 04:00:27;;;;;;;92.60;27.95;;;3.50;99.90;;;;;;4960981;28;20105;-85
2021/12/15 04:02:53;;;;;;;89.30;25.85;;;3.50;99.90;;;;;;4976941;28;20031;-85
2021/12/15 04:05:19;;;;;;;86.10;25.10;;;3.50;99.90;;;;;;4993277;28;20030;-85
2021/12/15 04:07:46;;;;;;;45.15;18.08;;;3.50;99.90;;;;;;4976820;28;20034;-85
2021/12/15 04:10:15;;;;;;;58.15;19.13;;;3.50;99.90;;;;;;4993120;28;20034;-85
2021/12/15 04:12:42;;;;;;;37.80;16.27;;;3.50;99.90;;;;;;4993121;28;20066;-86
2021/12/15 04:15:29;;;;;;;56.70;23.10;;;3.50;99.90;;;;;;4994432;28;20035;-85
2021/12/15 04:18:03;;;;;;;53.88;21.50;;;3.50;99.90;;;;;;4993273;28;20085;-85
2021/12/15 04:20:34;;;;;;;46.25;18.65;;;3.40;99.90;;;;;;4960575;28;20454;-85
2021/12/15 04:23:01;;;;;;;48.22;19.40;;;3.50;99.90;;;;;;4960569;28;20037;-85
2021/12/15 04:25:30;;;;;;;41.10;21.67;;;3.50;99.90;;;;;;4976379;28;20039;-85
2021/12/15 04:28:03;;;;;;;57.38;22.38;;;3.50;99.90;;;;;;4992410;28;20042;-84
2021/12/15 04:30:33;;;;;;;50.83;19.73;;;3.40;99.90;;;;;;4976263;28;20528;-85
2021/12/15 04:33:03;;;;;;;52.90;24.95;;;3.30;99.90;;;;;;4960313;28;20038;-85
2021/12/15 04:35:29;;;;;;;67.22;28.27;;;3.40;99.90;;;;;;4993639;28;20042;-85
2021/12/15 04:37:55;;;;;;;66.78;27.42;;;3.40;99.90;;;;;;4960466;28;20026;-85
2021/12/15 04:40:23;;;;;;;67.05;29.80;;;3.40;99.90;;;;;;4960460;28;20478;-85
2021/12/15 04:42:50;;;;;;;106.10;43.50;;;3.40;99.90;;;;;;4960207;28;20125;-85
2021/12/15 04:45:19;;;;;;;75.63;29.73;;;3.40;99.90;;;;;;4994474;28;20390;-85
2021/12/15 04:47:45;;;;;;;61.17;24.23;;;3.40;99.90;;;;;;4980091;28;20030;-84
2021/12/15 04:50:11;;;;;;;44.45;22.20;;;3.50;99.90;;;;;;4964107;28;20110;-85
2021/12/15 04:52:38;;;;;;;48.75;22.13;;;3.50;99.90;;;;;;4996187;28;20116;-85
2021/12/15 04:55:07;;;;;;;44.78;19.88;;;3.50;99.90;;;;;;4963673;28;20042;-86
2021/12/15 04:57:33;;;;;;;43.30;21.60;;;3.60;99.90;;;;;;4963952;28;20025;-85
2021/12/15 04:59:59;;;;;;;45.47;20.92;;;3.60;99.90;;;;;;4979981;28;20030;-85
2021/12/15 05:02:26;;;;;;;61.92;23.27;;;3.60;99.90;;;;;;4979806;28;20031;-85
2021/12/15 05:04:52;;;;;;;67.53;29.45;;;3.60;99.90;;;;;;4995635;28;20038;-85
2021/12/15 05:07:19;;;;;;;61.42;31.63;;;3.60;99.90;;;;;;4979470;28;20034;-85
2021/12/15 05:09:49;;;;;;;81.22;35.97;;;3.60;99.90;;;;;;4963366;28;20516;-86
2021/12/15 05:12:17;;;;;;;79.18;34.78;;;3.60;99.90;;;;;;4995878;28;20080;-85
2021/12/15 05:14:43;;;;;;;67.00;32.63;;;3.60;99.90;;;;;;4995649;28;20501;-86
2021/12/15 05:17:09;;;;;;;83.10;36.45;;;3.60;99.90;;;;;;4963276;28;20023;-85
2021/12/15 05:19:35;;;;;;;59.80;29.23;;;3.70;99.90;;;;;;4963241;28;20027;-85
2021/12/15 05:22:03;;;;;;;70.38;32.72;;;3.60;99.90;;;;;;4963140;28;20030;-85
2021/12/15 05:26:56;;;;;;;111.22;45.13;;;3.80;99.90;;;;;;4979317;28;20486;-85
2021/12/15 05:29:29;;;;;;;52.03;21.80;;;3.70;99.90;;;;;;4979124;28;20486;-86
2021/12/15 05:32:18;;;;;;;100.68;42.03;;;3.70;99.90;;;;;;4962879;28;20065;-86
2021/12/15 05:34:46;;;;;;;64.57;26.45;;;3.70;99.90;;;;;;4979164;28;20406;-85
2021/12/15 05:37:12;;;;;;;82.15;30.85;;;3.70;99.90;;;;;;4962954;28;20034;-86
2021/12/15 05:39:40;;;;;;;106.70;43.38;;;3.70;99.90;;;;;;4963282;28;20549;-85
2021/12/15 05:42:06;;;;;;;109.25;46.58;;;3.60;99.90;;;;;;4995228;28;20030;-85
2021/12/15 05:44:32;;;;;;;94.70;38.97;;;3.60;99.90;;;;;;4962688;28;20038;-85
2021/12/15 05:47:00;;;;;;;95.50;38.78;;;3.70;99.90;;;;;;4963000;28;20038;-86
2021/12/15 05:49:26;;;;;;;95.18;32.60;;;3.60;99.90;;;;;;4962860;28;20072;-85
2021/12/15 05:51:53;;;;;;;92.57;38.85;;;3.60;99.90;;;;;;4978653;28;20088;-85
2021/12/15 05:54:19;;;;;;;85.80;37.60;;;3.60;99.90;;;;;;4962736;28;20030;-85
2021/12/15 05:56:45;;;;;;;143.75;53.33;;;3.60;99.90;;;;;;4979146;28;20046;-85
2021/12/15 05:59:11;;;;;;;151.52;50.30;;;3.70;99.90;;;;;;4963346;28;20389;-86
2021/12/15 06:01:37;;;;;;;91.80;38.35;;;3.70;99.90;;;;;;4995363;28;20029;-85
2021/12/15 06:04:06;;;;;;;124.53;49.53;;;3.70;99.90;;;;;;4979166;28;20037;-85
2021/12/15 06:06:32;;;;;;;102.80;46.03;;;3.70;99.90;;;;;;4978942;28;20026;-84
2021/12/15 06:08:58;;;;;;;110.18;45.38;;;3.70;99.90;;;;;;4962556;28;20040;-84
2021/12/15 06:11:25;;;;;;;105.07;42.92;;;3.70;99.90;;;;;;4994657;28;20057;-86
2021/12/15 06:13:52;;;;;;;109.25;46.90;;;3.70;99.90;;;;;;4962490;28;20120;-86
2021/12/15 06:16:20;;;;;;;92.80;43.72;;;3.70;99.90;;;;;;4962512;28;20446;-86
2021/12/15 06:18:49;;;;;;;70.90;32.42;;;3.80;99.90;;;;;;4978409;28;20027;-85
2021/12/15 06:21:17;;;;;;;98.80;45.15;;;3.80;99.90;;;;;;4978363;28;20034;-85
2021/12/15 06:27:34;;;;;;;78.82;37.33;;;3.80;99.90;;;;;;4996196;28;20122;-86
2021/12/15 06:30:00;;;;;;;81.18;39.30;;;3.70;99.90;;;;;;4978155;28;20481;-85
2021/12/15 06:32:27;;;;;;;83.30;36.92;;;3.80;99.90;;;;;;4961990;28;20038;-86
2021/12/15 06:34:53;;;;;;;85.50;36.40;;;3.80;99.90;;;;;;4962258;28;20402;-86
2021/12/15 06:37:18;;;;;;;79.45;39.45;;;3.70;99.90;;;;;;4961763;28;20046;-85
2021/12/15 06:39:45;;;;;;;61.25;28.85;;;3.80;99.90;;;;;;4994408;28;20031;-85
2021/12/15 06:42:10;;;;;;;60.90;28.55;;;3.80;99.90;;;;;;4961555;28;20519;-86
2021/12/15 06:44:36;;;;;;;67.55;29.98;;;3.80;99.90;;;;;;4961388;28;20030;-85
2021/12/15 06:47:48;;;;;;;56.75;27.63;;;3.70;99.90;;;;;;4961892;28;20030;-85
2021/12/15 06:58:23;;;;;;;74.93;32.22;;;3.80;99.90;;;;;;4977553;28;20098;-87
2021/12/15 07:01:14;;;;;;;70.60;29.13;;;3.80;99.90;;;;;;4961466;28;20092;-85
2021/12/15 07:03:41;;;;;;;77.28;30.60;;;3.80;99.90;;;;;;4977597;28;20430;-85
2021/12/15 07:06:07;;;;;;;70.93;29.88;;;3.80;99.90;;;;;;4977616;28;20085;-87
2021/12/15 07:08:33;;;;;;;92.72;32.05;;;3.80;99.90;;;;;;4961035;28;20038;-85
2021/12/15 07:11:04;;;;;;;75.30;30.73;;;3.80;99.90;;;;;;4961562;28;20506;-86
2021/12/15 07:13:30;;;;;;;85.78;30.92;;;3.80;99.90;;;;;;4961342;28;20557;-87
2021/12/15 07:16:03;;;;;;;93.18;34.28;;;3.80;99.90;;;;;;4961082;28;20510;-87
2021/12/15 07:18:43;;;;;;;95.88;36.63;;;3.80;99.90;;;;;;4993681;28;20073;-87
2021/12/15 07:21:20;;;;;;;125.28;39.85;;;3.80;99.90;;;;;;4962040;28;20042;-87
2021/12/15 07:23:47;;;;;;;98.32;36.03;;;3.80;99.90;;;;;;4994416;28;20545;-86
2021/12/15 07:26:13;;;;;;;97.95;39.75;;;3.80;99.90;;;;;;4961505;28;20486;-87
2021/12/15 07:28:40;;;;;;;96.28;36.15;;;3.90;99.90;;;;;;4977451;28;20510;-88
2021/12/15 07:31:07;;;;;;;106.30;43.80;;;3.90;99.90;;;;;;4993374;28;20030;-86
2021/12/15 07:33:33;;;;;;;82.25;37.42;;;3.90;99.90;;;;;;4977166;28;20516;-86
2021/12/15 07:36:00;;;;;;;113.82;42.60;;;3.90;99.90;;;;;;4960580;28;20031;-86
2021/12/15 07:38:27;;;;;;;117.47;46.90;;;4.00;99.90;;;;;;4960769;28;20085;-86
2021/12/15 07:40:53;;;;;;;109.93;46.88;;;4.00;99.90;;;;;;4960738;28;20026;-86
2021/12/15 07:43:23;;;;;;;99.63;35.97;;;4.00;99.90;;;;;;4960817;28;20089;-85
2021/12/15 07:45:56;;;;;;;113.18;39.13;;;4.00;99.90;;;;;;4961078;28;20133;-86
2021/12/15 07:48:25;;;;;;;91.93;37.65;;;4.00;99.90;;;;;;4977015;28;20518;-85
2021/12/15 07:50:54;;;;;;;103.43;37.90;;;4.10;99.90;;;;;;4976967;28;20494;-85
2021/12/15 07:53:20;;;;;;;86.72;35.40;;;4.10;99.90;;;;;;4960989;28;20037;-85
2021/12/15 07:55:48;;;;;;;63.55;30.35;;;4.10;99.90;;;;;;4977192;28;20041;-85
2021/12/15 07:58:14;;;;;;;78.75;37.35;;;4.20;99.90;;;;;;4976731;28;20394;-86
2021/12/15 08:00:42;;;;;;;78.20;32.63;;;4.20;99.90;;;;;;4976908;28;20062;-85
2021/12/15 08:03:08;;;;;;;69.43;31.15;;;4.20;99.90;;;;;;4976753;28;20101;-86
2021/12/15 08:05:36;;;;;;;65.53;30.70;;;4.30;99.90;;;;;;4976751;28;20045;-85
2021/12/15 08:08:03;;;;;;;64.43;29.92;;;4.30;99.90;;;;;;4960638;28;20129;-85
2021/12/15 08:10:29;;;;;;;72.03;33.70;;;4.40;99.90;;;;;;4992726;28;20482;-86
2021/12/15 08:12:55;;;;;;;59.80;27.75;;;4.40;99.90;;;;;;4960580;28;20038;-85
2021/12/15 08:15:21;;;;;;;69.18;32.30;;;4.50;99.90;;;;;;4960256;28;20037;-87
2021/12/15 08:17:51;;;;;;;72.32;33.28;;;4.60;99.90;;;;;;4977012;28;20536;-85
2021/12/15 08:20:19;;;;;;;61.38;27.70;;;4.60;99.90;;;;;;4963079;28;20059;-87
2021/12/15 08:22:48;;;;;;;57.03;26.02;;;4.60;99.90;;;;;;4964426;28;20045;-87
2021/12/15 08:25:16;;;;;;;48.25;23.27;;;4.60;99.90;;;;;;4964555;28;20497;-86
2021/12/15 08:27:43;;;;;;;59.88;26.85;;;4.70;99.90;;;;;;4964198;28;20027;-86
2021/12/15 08:30:12;;;;;;;61.35;27.77;;;4.70;99.90;;;;;;4996682;28;20439;-86
2021/12/15 08:32:39;;;;;;;65.25;31.42;;;4.70;99.90;;;;;;4964257;28;20026;-87
2021/12/15 08:35:06;;;;;;;60.42;26.50;;;4.70;99.90;;;;;;4963920;28;20038;-86
2021/12/15 08:37:32;;;;;;;59.40;29.00;;;4.70;99.90;;;;;;4996692;28;20382;-86
2021/12/15 08:39:59;;;;;;;55.13;25.27;;;4.80;99.90;;;;;;4964066;28;20034;-87
2021/12/15 08:42:25;;;;;;;56.95;24.63;;;4.90;99.90;;;;;;4964619;28;20080;-87
2021/12/15 08:44:51;;;;;;;36.60;21.08;;;4.90;99.90;;;;;;4980334;28;20030;-85
2021/12/15 08:47:17;;;;;;;48.78;24.38;;;5.00;99.90;;;;;;4964210;28;20041;-86
2021/12/15 08:49:43;;;;;;;48.65;22.33;;;5.10;99.90;;;;;;4980647;28;20157;-85
2021/12/15 08:52:09;;;;;;;41.75;22.60;;;5.10;99.90;;;;;;4963816;28;20125;-86
2021/12/15 08:54:35;;;;;;;55.90;26.52;;;5.10;99.90;;;;;;4964126;28;20030;-86
2021/12/15 08:57:01;;;;;;;56.58;27.67;;;5.20;99.90;;;;;;4964026;28;20029;-86
2021/12/15 08:59:28;;;;;;;61.33;29.98;;;5.30;99.90;;;;;;4963857;28;20426;-86
2021/12/15 09:01:54;;;;;;;54.33;28.90;;;5.30;99.90;;;;;;4963895;28;20053;-85
2021/12/15 09:04:20;;;;;;;46.20;25.90;;;5.40;99.90;;;;;;4963490;28;20645;-86
2021/12/15 09:06:47;;;;;;;38.60;23.33;;;5.50;99.90;;;;;;4963483;28;20034;-86
2021/12/15 09:09:16;;;;;;;26.63;16.10;;;5.60;99.90;;;;;;4963677;28;20077;-86
2021/12/15 09:11:42;;;;;;;28.05;16.17;;;5.70;99.90;;;;;;4979849;28;20367;-86
2021/12/15 09:14:11;;;;;;;23.95;14.38;;;5.70;99.90;;;;;;4980074;28;20126;-86
2021/12/15 09:16:39;;;;;;;32.45;18.77;;;5.70;99.90;;;;;;4965582;28;20402;-86
2021/12/15 09:19:06;;;;;;;28.83;17.38;;;5.80;99.90;;;;;;4979812;28;20038;-87
2021/12/15 09:21:34;;;;;;;29.77;18.02;;;5.70;99.90;;;;;;4963713;28;20065;-87
2021/12/15 09:24:01;;;;;;;29.73;19.73;;;5.70;99.90;;;;;;4963510;28;20035;-87
2021/12/15 09:26:27;;;;;;;31.98;19.00;;;5.80;99.90;;;;;;4979865;28;20038;-88
2021/12/15 09:28:53;;;;;;;27.23;17.95;;;5.90;99.90;;;;;;4979579;28;20034;-87
2021/12/15 09:31:19;;;;;;;27.67;16.85;;;6.00;99.90;;;;;;4962353;28;20385;-86
2021/12/15 09:33:49;;;;;;;38.58;21.23;;;5.90;99.90;;;;;;4963976;28;20034;-87
2021/12/15 09:36:17;;;;;;;26.10;16.90;;;6.00;99.90;;;;;;4980308;28;20105;-88
2021/12/15 09:38:44;;;;;;;14.20;7.63;;;6.10;99.90;;;;;;4964122;28;20120;-88
2021/12/15 09:41:13;;;;;;;18.35;10.70;;;6.10;99.90;;;;;;4963349;28;20034;-88
2021/12/15 09:43:41;;;;;;;13.73;8.07;;;6.20;99.90;;;;;;4963689;28;20037;-87
2021/12/15 10:03:07;;;;;;;15.73;8.90;;;6.30;99.90;;;;;;4996601;28;20077;-86
2021/12/15 10:05:46;;;;;;;15.32;10.07;;;6.20;99.90;;;;;;4963218;28;20125;-86
2021/12/15 10:19:51;;;;;;;14.15;9.90;;;5.80;99.90;;;;;;4995538;28;20029;-88
2021/12/15 10:22:28;;;;;;;10.73;6.30;;;6.00;99.90;;;;;;4977938;28;20026;-88
2021/12/15 10:24:57;;;;;;;10.90;6.05;;;6.10;99.90;;;;;;4994600;28;20034;-87
2021/12/15 10:27:44;;;;;;;11.60;7.35;;;6.10;99.90;;;;;;4962488;28;20060;-88
2021/12/15 10:30:16;;;;;;;10.15;5.55;;;6.40;99.90;;;;;;4977951;28;20478;-88
2021/12/15 10:32:47;;;;;;;11.43;7.30;;;6.50;99.90;;;;;;4995365;28;20030;-88
2021/12/15 10:35:16;;;;;;;;;;;6.40;99.90;;;;;;4962677;28;20042;-88
2021/12/15 10:37:42;;;;;;;10.07;7.18;;;6.30;99.90;;;;;;4962054;28;19910;-88
2021/12/15 10:40:21;;;;;;;9.35;5.65;;;6.40;99.90;;;;;;4978272;28;20045;-87
2021/12/15 10:42:58;;;;;;;10.93;7.45;;;6.20;99.90;;;;;;4979183;28;20035;-90
2021/12/15 10:45:24;;;;;;;10.95;7.72;;;6.20;99.90;;;;;;4979170;28;20478;-88
2021/12/15 10:47:52;;;;;;;12.45;8.90;;;6.30;99.90;;;;;;4960035;28;20034;-89
2021/12/15 10:50:21;;;;;;;15.40;8.52;;;6.40;99.90;;;;;;4977916;28;20042;-87
2021/12/15 10:52:57;;;;;;;11.00;7.20;;;6.50;99.90;;;;;;4961490;28;20447;-89
2021/12/15 10:55:32;;;;;;;10.30;7.10;;;6.30;99.90;;;;;;4961811;28;20042;-89
2021/12/15 10:58:00;;;;;;;8.55;5.57;;;6.30;99.90;;;;;;4961732;28;20066;-88
2021/12/15 11:00:26;;;;;;;9.40;6.20;;;6.30;99.90;;;;;;4962447;28;20038;-88
2021/12/15 11:03:02;;;;;;;7.63;4.72;;;6.30;99.90;;;;;;4961221;28;20034;-88
2021/12/15 11:05:28;;;;;;;7.93;5.10;;;6.30;99.90;;;;;;4961550;28;20042;-88
2021/12/15 11:07:58;;;;;;;7.43;5.38;;;6.40;99.90;;;;;;4961646;28;20040;-88
2021/12/15 11:10:36;;;;;;;8.15;5.28;;;6.50;99.90;;;;;;4978461;28;20105;-87
2021/12/15 11:13:14;;;;;;;9.63;6.60;;;6.40;99.90;;;;;;4962680;28;20124;-88
2021/12/15 11:15:50;;;;;;;10.55;7.50;;;6.50;99.90;;;;;;4994506;28;20034;-89
2021/12/15 11:18:28;;;;;;;12.35;8.60;;;6.50;99.90;;;;;;4993643;28;20461;-88
2021/12/15 11:21:14;;;;;;;8.13;6.05;;;6.50;99.90;;;;;;4961882;28;20430;-89
2021/12/15 11:23:40;;;;;;;9.93;6.78;;;6.50;99.90;;;;;;4977875;28;20050;-88
2021/12/15 11:26:10;;;;;;;13.52;8.90;;;6.60;99.90;;;;;;4978196;28;20399;-88
2021/12/15 11:28:40;;;;;;;17.33;11.35;;;6.60;99.90;;;;;;4977639;28;20042;-88
2021/12/15 11:31:31;;;;;;;14.53;9.67;;;6.60;99.90;;;;;;4961589;28;20070;-88
2021/12/15 11:34:00;;;;;;;13.93;9.65;;;6.50;99.90;;;;;;4978029;28;20273;-89
2021/12/15 11:36:33;;;;;;;23.65;13.10;;;6.60;99.90;;;;;;4977226;28;20125;-88
2021/12/15 11:39:10;;;;;;;8.75;5.65;;;6.60;99.90;;;;;;4977198;28;20560;-88
2021/12/15 11:41:42;;;;;;;24.10;12.52;;;6.30;99.90;;;;;;4993596;28;20034;-88
2021/12/15 11:44:21;;;;;;;56.42;24.10;;;6.00;99.90;;;;;;4960991;28;20042;-88
2021/12/15 11:46:51;;;;;;;26.38;12.70;;;6.00;99.90;;;;;;4976241;28;20041;-87
2021/12/15 11:49:25;;;;;;;11.48;7.30;;;6.10;99.90;;;;;;4961157;28;20027;-89
2021/12/15 11:51:55;;;;;;;15.80;9.68;;;6.20;99.90;;;;;;4977054;28;20061;-88
2021/12/15 11:54:49;;;;;;;23.27;12.55;;;6.30;99.90;;;;;;4961739;28;20824;-88
2021/12/15 11:57:22;;;;;;;19.35;12.65;;;6.50;99.90;;;;;;4998672;28;20126;-88
2021/12/15 11:59:53;;;;;;;21.38;12.75;;;6.60;99.90;;;;;;4981368;28;20164;-89
2021/12/15 12:02:28;;;;;;;44.83;19.80;;;6.60;99.90;;;;;;4964885;28;20045;-89
2021/12/15 12:05:12;;;;;;;14.80;8.65;;;6.60;99.90;;;;;;4964785;28;20037;-88
2021/12/15 12:08:00;;;;;;;17.00;10.18;;;6.30;99.90;;;;;;4982198;28;20760;-88
2021/12/15 12:10:45;;;;;;;21.00;10.68;;;6.20;99.90;;;;;;4996707;28;20034;-88
2021/12/15 12:13:19;;;;;;;45.63;21.02;;;6.20;99.90;;;;;;4980952;28;20026;-88
2021/12/15 12:15:48;;;;;;;18.83;10.02;;;6.40;99.90;;;;;;4980855;28;20030;-88
2021/12/15 12:18:17;;;;;;;17.88;9.55;;;6.30;99.90;;;;;;4981130;28;20478;-89
2021/12/15 12:20:49;;;;;;;15.13;9.52;;;6.20;99.90;;;;;;4997837;28;20030;-88
2021/12/15 12:23:24;;;;;;;30.63;14.75;;;6.20;99.90;;;;;;4996473;28;20062;-89
2021/12/15 12:25:56;;;;;;;16.75;9.57;;;6.30;99.90;;;;;;4981038;28;20034;-89
2021/12/15 12:28:25;;;;;;;14.57;8.65;;;6.20;99.90;;;;;;4980790;28;20034;-88
2021/12/15 12:30:56;;;;;;;15.95;10.30;;;6.30;99.90;;;;;;4996815;28;20030;-88
2021/12/15 12:33:23;;;;;;;16.80;10.00;;;6.30;99.90;;;;;;4998388;28;20034;-90
2021/12/15 12:36:12;;;;;;;16.63;9.57;;;6.20;99.90;;;;;;4980903;28;20077;-87
2021/12/15 12:38:40;;;;;;;15.75;8.65;;;6.10;99.90;;;;;;4996777;28;20397;-86
2021/12/15 12:41:17;;;;;;;15.43;10.55;;;6.00;99.90;;;;;;4964629;28;20041;-86
2021/12/15 12:43:47;;;;;;;13.45;8.52;;;6.10;99.90;;;;;;4964617;28;20037;-87
2021/12/15 12:46:22;;;;;;;18.05;11.18;;;5.90;99.90;;;;;;4980219;28;20058;-86
2021/12/15 13:01:10;;;;;;;23.20;13.68;;;6.10;99.90;;;;;;4980391;28;20034;-87
2021/12/15 13:03:43;;;;;;;19.33;12.77;;;6.10;99.90;;;;;;4963632;28;20449;-87
2021/12/15 13:06:13;;;;;;;16.50;10.38;;;6.10;99.90;;;;;;4964445;28;20117;-87
2021/12/15 13:09:06;;;;;;;22.30;13.93;;;6.20;99.90;;;;;;4997847;28;20038;-88
2021/12/15 13:11:35;;;;;;;24.98;14.07;;;6.10;99.90;;;;;;4980546;28;20081;-86
2021/12/15 13:14:04;;;;;;;19.15;12.30;;;6.20;99.90;;;;;;4964114;28;20037;-87
2021/12/15 13:16:42;;;;;;;19.75;11.77;;;6.10;99.90;;;;;;4963823;28;20089;-88
2021/12/15 13:19:10;;;;;;;22.45;13.73;;;6.20;99.90;;;;;;4995881;28;20035;-89
2021/12/15 13:21:58;;;;;;;19.95;13.13;;;6.10;99.90;;;;;;4980133;28;20026;-89
2021/12/15 13:30:36;;;;;;;19.92;12.23;;;5.90;99.90;;;;;;4996599;28;20033;-88
2021/12/15 13:33:10;;;;;;;34.90;19.00;;;5.80;99.90;;;;;;4963428;28;20068;-88
2021/12/15 13:35:44;;;;;;;34.38;18.33;;;5.90;99.90;;;;;;4963416;28;20030;-88
2021/12/15 13:38:11;;;;;;;21.58;11.85;;;5.90;99.90;;;;;;4979636;28;20026;-88
2021/12/15 13:41:04;;;;;;;31.27;19.60;;;5.90;99.90;;;;;;4963397;28;20061;-88
2021/12/15 13:43:40;;;;;;;24.17;14.13;;;5.90;99.90;;;;;;4979656;28;20058;-88
2021/12/15 13:46:29;;;;;;;20.48;12.57;;;6.00;99.90;;;;;;4963904;28;20053;-89
2021/12/15 13:49:08;;;;;;;24.20;14.93;;;5.90;99.90;;;;;;4989420;28;20092;-88
2021/12/15 13:52:24;;;;;;;29.17;16.15;;;5.90;99.90;;;;;;4979240;28;20129;-88
2021/12/15 13:54:53;;;;;;;26.73;15.55;;;5.90;99.90;;;;;;4963032;28;20510;-88
2021/12/15 13:57:30;;;;;;;22.27;13.70;;;5.90;99.90;;;;;;4995638;28;20038;-86
2021/12/15 14:00:03;;;;;;;19.90;13.27;;;5.80;99.90;;;;;;4963105;28;20048;-89
2021/12/15 14:02:41;;;;;;;22.40;14.73;;;5.80;99.90;;;;;;4981045;28;20034;-88
2021/12/15 14:05:16;;;;;;;29.98;18.05;;;5.90;99.90;;;;;;4994851;28;20060;-88
2021/12/15 14:07:45;;;;;;;29.80;18.67;;;5.90;99.90;;;;;;4963369;28;20041;-89
2021/12/15 14:10:12;;;;;;;28.55;17.90;;;6.00;99.90;;;;;;4994945;28;20081;-88
2021/12/15 14:12:47;;;;;;;30.75;18.75;;;5.90;99.90;;;;;;4995319;28;20034;-88
2021/12/15 14:15:36;;;;;;;35.45;19.42;;;5.90;99.90;;;;;;4979086;28;20433;-88
2021/12/15 14:18:16;;;;;;;27.08;16.35;;;5.90;99.90;;;;;;4978414;28;20027;-88
2021/12/15 14:20:57;;;;;;;27.75;18.02;;;5.90;99.90;;;;;;4962923;28;20030;-88
2021/12/15 14:23:23;;;;;;;23.20;15.32;;;5.90;99.90;;;;;;4994872;28;20509;-89